createdAt,value
2018-05-02T00:00:08.143Z,7.81
2018-05-02T00:02:42.231Z,7.72
2018-05-02T00:05:14.418Z,7.65
2018-05-02T00:07:51.310Z,7.63
2018-05-02T00:10:23.555Z,7.67
2018-05-02T00:12:55.809Z,7.65
2018-05-02T00:15:27.852Z,7.61
2018-05-02T00:18:01.250Z,7.62
2018-05-02T00:20:33.970Z,7.60
2018-05-02T00:23:08.093Z,7.58
2018-05-02T00:25:40.738Z,7.55
2018-05-02T00:28:14.352Z,7.57
2018-05-02T00:30:47.016Z,7.56
2018-05-02T00:33:20.233Z,7.55
2018-05-02T00:35:53.771Z,7.55
2018-05-02T00:38:26.378Z,7.59
2018-05-02T00:40:58.631Z,7.58
2018-05-02T00:43:31.634Z,7.51
2018-05-02T00:46:05.136Z,7.48
2018-05-02T00:48:38.611Z,7.47
2018-05-02T00:51:10.557Z,7.42
2018-05-02T00:53:42.613Z,7.37
2018-05-02T00:56:14.591Z,7.39
2018-05-02T00:58:47.170Z,7.42
2018-05-02T01:01:20.492Z,7.42
2018-05-02T01:03:53.173Z,7.37
2018-05-02T01:06:25.292Z,7.32
2018-05-02T01:08:58.593Z,7.30
2018-05-02T01:11:31.432Z,7.37
2018-05-02T01:14:03.932Z,7.38
2018-05-02T01:16:35.971Z,7.35
2018-05-02T01:19:08.854Z,7.32
2018-05-02T01:21:41.177Z,7.31
2018-05-02T01:24:13.372Z,7.34
2018-05-02T01:26:45.395Z,7.34
2018-05-02T01:29:17.860Z,7.35
2018-05-02T01:31:51.101Z,7.39
2018-05-02T01:34:23.889Z,7.38
2018-05-02T01:36:56.156Z,7.26
2018-05-02T01:39:28.628Z,7.25
2018-05-02T01:42:02.231Z,7.29
2018-05-02T01:44:34.234Z,7.33
2018-05-02T01:47:06.852Z,7.30
2018-05-02T01:49:39.172Z,7.32
2018-05-02T01:52:11.175Z,7.35
2018-05-02T01:54:43.972Z,7.36
2018-05-02T01:57:16.209Z,7.34
2018-05-02T01:59:48.615Z,7.32
2018-05-02T02:02:21.615Z,7.28
2018-05-02T02:04:55.753Z,7.24
2018-05-02T02:07:27.858Z,7.26
2018-05-02T02:10:00.914Z,7.30
2018-05-02T02:12:33.105Z,7.28
2018-05-02T02:15:06.536Z,7.24
2018-05-02T02:17:40.013Z,7.30
2018-05-02T02:20:12.171Z,7.33
2018-05-02T02:22:45.037Z,7.32
2018-05-02T02:25:17.055Z,7.37
2018-05-02T02:27:49.073Z,7.43
2018-05-02T02:30:21.554Z,7.51
2018-05-02T02:32:53.376Z,7.59
2018-05-02T02:35:26.496Z,7.63
2018-05-02T02:37:59.917Z,7.66
2018-05-02T02:40:32.533Z,7.65
2018-05-02T02:43:07.435Z,7.64
2018-05-02T02:45:41.814Z,7.61
2018-05-02T02:48:14.419Z,7.59
2018-05-02T02:50:47.373Z,7.57
2018-05-02T02:53:20.634Z,7.61
2018-05-02T02:55:53.289Z,7.65
2018-05-02T02:58:28.752Z,7.74
2018-05-02T03:01:01.881Z,7.80
2018-05-02T03:03:35.952Z,7.84
2018-05-02T03:06:10.015Z,7.83
2018-05-02T03:08:42.377Z,7.90
2018-05-02T03:11:15.181Z,7.96
2018-05-02T03:13:49.979Z,7.98
2018-05-02T03:16:21.892Z,8.04
2018-05-02T03:18:54.412Z,8.09
2018-05-02T03:21:26.437Z,8.12
2018-05-02T03:23:58.714Z,8.12
2018-05-02T03:26:31.095Z,8.13
2018-05-02T03:29:04.691Z,8.17
2018-05-02T03:31:38.799Z,8.21
2018-05-02T03:34:29.114Z,8.24
2018-05-02T03:37:01.719Z,8.19
2018-05-02T03:39:36.697Z,8.17
2018-05-02T03:42:10.416Z,8.20
2018-05-02T03:44:43.434Z,8.21
2018-05-02T03:47:15.454Z,8.21
2018-05-02T03:49:48.932Z,8.21
2018-05-02T03:52:22.954Z,8.19
2018-05-02T03:54:55.912Z,8.20
2018-05-02T03:57:29.795Z,8.25
2018-05-02T04:00:19.914Z,8.29
2018-05-02T04:03:10.660Z,8.33
2018-05-02T04:05:59.411Z,8.34
2018-05-02T04:08:37.327Z,8.35
2018-05-02T04:11:13.412Z,8.38
2018-05-02T04:13:46.416Z,8.41
2018-05-02T04:16:20.356Z,8.45
2018-05-02T04:18:56.656Z,8.52
2018-05-02T04:21:29.975Z,8.56
2018-05-02T04:24:04.029Z,8.61
2018-05-02T04:26:39.117Z,8.66
2018-05-02T04:29:13.978Z,8.69
2018-05-02T04:31:48.612Z,8.71
2018-05-02T04:34:23.433Z,8.76
2018-05-02T04:36:59.715Z,8.81
2018-05-02T04:39:32.216Z,8.85
2018-05-02T04:42:04.738Z,8.88
2018-05-02T04:44:37.542Z,8.94
2018-05-02T04:47:17.232Z,8.97
2018-05-02T04:49:50.261Z,9.01
2018-05-02T04:52:24.275Z,9.03
2018-05-02T04:54:57.656Z,9.08
2018-05-02T04:57:31.395Z,9.12
2018-05-02T05:00:06.655Z,9.16
2018-05-02T05:02:41.269Z,9.24
2018-05-02T05:05:14.351Z,9.32
2018-05-02T05:07:47.109Z,9.40
2018-05-02T05:10:20.919Z,9.48
2018-05-02T05:12:54.112Z,9.55
2018-05-02T05:15:27.074Z,9.63
2018-05-02T05:18:00.058Z,9.68
2018-05-02T05:20:34.091Z,9.74
2018-05-02T05:23:09.356Z,9.79
2018-05-02T05:25:41.495Z,9.84
2018-05-02T05:28:17.548Z,9.89
2018-05-02T05:30:51.937Z,9.94
2018-05-02T05:33:26.119Z,9.99
2018-05-02T05:36:00.834Z,10.07
2018-05-02T05:38:35.136Z,10.15
2018-05-02T05:41:10.297Z,10.21
2018-05-02T05:43:44.639Z,10.28
2018-05-02T05:46:19.114Z,10.31
2018-05-02T05:48:52.756Z,10.34
2018-05-02T05:51:26.890Z,10.40
2018-05-02T05:54:03.299Z,10.47
2018-05-02T05:56:37.878Z,10.52
2018-05-02T05:59:10.492Z,10.55
2018-05-02T06:01:43.893Z,10.62
2018-05-02T06:04:18.851Z,10.66
2018-05-02T06:06:55.551Z,10.72
2018-05-02T06:09:36.695Z,10.81
2018-05-02T06:12:11.590Z,10.90
2018-05-02T06:14:46.402Z,10.99
2018-05-02T06:17:21.496Z,11.05
2018-05-02T06:19:58.497Z,11.07
2018-05-02T06:22:32.593Z,11.08
2018-05-02T06:25:07.219Z,11.14
2018-05-02T06:27:40.593Z,11.22
2018-05-02T06:30:14.351Z,11.30
2018-05-02T06:32:47.517Z,11.36
2018-05-02T06:35:22.840Z,11.41
2018-05-02T06:37:58.919Z,11.48
2018-05-02T06:40:33.437Z,11.53
2018-05-02T06:43:08.139Z,11.61
2018-05-02T06:45:41.777Z,11.76
2018-05-02T06:48:20.554Z,11.90
2018-05-02T06:50:56.954Z,11.97
2018-05-02T06:53:29.516Z,12.06
2018-05-02T06:56:04.816Z,12.15
2018-05-02T06:58:39.019Z,12.25
2018-05-02T07:01:12.014Z,12.34
2018-05-02T07:03:45.579Z,12.41
2018-05-02T07:06:18.293Z,12.52
2018-05-02T07:08:51.699Z,12.58
2018-05-02T07:11:25.393Z,12.67
2018-05-02T07:13:57.959Z,12.80
2018-05-02T07:16:31.256Z,12.87
2018-05-02T07:19:03.600Z,12.93
2018-05-02T07:21:36.692Z,12.99
2018-05-02T07:24:11.354Z,13.03
2018-05-02T07:26:44.152Z,13.12
2018-05-02T07:29:18.602Z,13.18
2018-05-02T07:31:51.013Z,13.25
2018-05-02T07:34:23.816Z,13.31
2018-05-02T07:36:58.360Z,13.35
2018-05-02T07:39:30.957Z,13.38
2018-05-02T07:42:06.846Z,13.42
2018-05-02T07:44:39.416Z,13.49
2018-05-02T07:47:15.895Z,13.59
2018-05-02T07:49:49.279Z,13.67
2018-05-02T07:52:24.036Z,13.73
2018-05-02T07:54:58.479Z,13.78
2018-05-02T07:57:32.496Z,13.82
2018-05-02T08:00:06.336Z,13.90
2018-05-02T08:02:40.733Z,14.02
2018-05-02T08:05:14.485Z,14.16
2018-05-02T08:07:49.896Z,14.32
2018-05-02T08:10:24.395Z,14.45
2018-05-02T08:12:56.694Z,14.55
2018-05-02T08:15:30.278Z,14.69
2018-05-02T08:18:08.875Z,14.87
2018-05-02T08:20:43.194Z,15.07
2018-05-02T08:23:16.118Z,15.15
2018-05-02T08:25:49.253Z,15.25
2018-05-02T08:28:23.617Z,15.33
2018-05-02T08:30:57.895Z,15.47
2018-05-02T08:33:34.853Z,15.81
2018-05-02T08:36:08.537Z,16.11
2018-05-02T08:38:41.694Z,16.25
2018-05-02T08:41:15.732Z,16.40
2018-05-02T08:43:48.353Z,16.61
2018-05-02T08:46:21.377Z,16.82
2018-05-02T08:48:55.719Z,17.08
2018-05-02T08:51:28.798Z,17.30
2018-05-02T08:54:01.894Z,17.46
2018-05-02T08:56:36.775Z,17.65
2018-05-02T08:59:10.519Z,17.82
2018-05-02T09:01:46.583Z,17.88
2018-05-02T09:04:19.576Z,18.00
2018-05-02T09:06:51.317Z,18.15
2018-05-02T09:09:24.480Z,18.36
2018-05-02T09:11:57.114Z,18.55
2018-05-02T09:14:30.940Z,18.82
2018-05-02T09:17:05.439Z,19.13
2018-05-02T09:19:41.634Z,19.38
2018-05-02T09:22:17.919Z,19.53
2018-05-02T09:24:50.699Z,19.64
2018-05-02T09:27:23.712Z,19.78
2018-05-02T09:29:56.595Z,19.94
2018-05-02T09:32:30.655Z,20.02
2018-05-02T09:35:03.579Z,20.15
2018-05-02T09:37:36.077Z,20.23
2018-05-02T09:40:10.914Z,20.28
2018-05-02T09:42:44.538Z,20.36
2018-05-02T09:45:18.114Z,20.53
2018-05-02T09:47:51.536Z,20.67
2018-05-02T09:50:23.998Z,20.72
2018-05-02T09:52:58.376Z,20.72
2018-05-02T09:55:31.931Z,20.71
2018-05-02T09:58:04.314Z,20.64
2018-05-02T10:00:37.012Z,20.54
2018-05-02T10:03:12.037Z,20.54
2018-05-02T10:05:45.955Z,20.56
2018-05-02T10:08:21.301Z,20.62
2018-05-02T10:10:55.666Z,20.76
2018-05-02T10:13:27.961Z,21.00
2018-05-02T10:16:00.595Z,21.27
2018-05-02T10:18:33.278Z,21.47
2018-05-02T10:21:06.253Z,21.70
2018-05-02T10:23:41.936Z,21.96
2018-05-02T10:26:18.025Z,22.19
2018-05-02T10:28:52.191Z,22.26
2018-05-02T10:31:25.597Z,22.39
2018-05-02T10:33:58.698Z,22.55
2018-05-02T10:36:31.675Z,22.78
2018-05-02T10:39:04.715Z,22.85
2018-05-02T10:41:37.476Z,22.84
2018-05-02T10:44:11.357Z,22.75
2018-05-02T10:46:45.374Z,22.69
2018-05-02T10:49:20.958Z,22.80
2018-05-02T10:51:53.172Z,22.90
2018-05-02T10:54:25.467Z,22.86
2018-05-02T10:56:57.897Z,22.80
2018-05-02T10:59:30.278Z,22.77
2018-05-02T11:02:04.246Z,22.66
2018-05-02T11:04:38.377Z,22.58
2018-05-02T11:07:10.996Z,22.52
2018-05-02T11:09:44.997Z,22.45
2018-05-02T11:12:18.650Z,22.34
2018-05-02T11:14:54.793Z,22.26
2018-05-02T11:17:28.137Z,22.22
2018-05-02T11:20:00.429Z,22.21
2018-05-02T11:22:34.315Z,22.28
2018-05-02T11:25:07.302Z,22.42
2018-05-02T11:27:40.474Z,22.57
2018-05-02T11:30:14.021Z,22.64
2018-05-02T11:32:46.493Z,22.57
2018-05-02T11:35:19.154Z,22.46
2018-05-02T11:37:53.815Z,22.39
2018-05-02T11:40:28.084Z,22.27
2018-05-02T11:43:02.218Z,22.11
2018-05-02T11:45:35.411Z,21.98
2018-05-02T11:48:08.753Z,21.86
2018-05-02T11:50:42.074Z,21.78
2018-05-02T11:53:15.253Z,21.71
2018-05-02T11:55:47.998Z,21.61
2018-05-02T11:58:22.620Z,21.50
2018-05-02T12:00:58.274Z,21.41
2018-05-02T12:03:31.395Z,21.42
2018-05-02T12:06:05.972Z,21.41
2018-05-02T12:08:41.592Z,21.40
2018-05-02T12:11:19.093Z,21.48
2018-05-02T12:13:51.279Z,21.56
2018-05-02T12:16:26.516Z,21.71
2018-05-02T12:19:01.573Z,21.87
2018-05-02T12:21:36.074Z,22.05
2018-05-02T12:24:10.675Z,22.21
2018-05-02T12:26:43.332Z,22.24
2018-05-02T12:29:15.850Z,22.22
2018-05-02T12:31:49.835Z,22.14
2018-05-02T12:34:22.853Z,22.06
2018-05-02T12:36:56.675Z,22.02
2018-05-02T12:39:31.422Z,22.02
2018-05-02T12:42:04.272Z,22.02
2018-05-02T12:44:37.201Z,22.01
2018-05-02T12:47:12.478Z,22.05
2018-05-02T12:49:47.096Z,22.16
2018-05-02T12:52:19.480Z,22.23
2018-05-02T12:54:51.697Z,22.28
2018-05-02T12:57:25.631Z,22.39
2018-05-02T12:59:57.316Z,22.50
2018-05-02T13:02:29.574Z,22.56
2018-05-02T13:05:05.121Z,22.60
2018-05-02T13:07:38.171Z,22.72
2018-05-02T13:10:12.938Z,22.91
2018-05-02T13:12:47.498Z,23.03
2018-05-02T13:15:21.613Z,23.09
2018-05-02T13:17:55.795Z,22.89
2018-05-02T13:20:30.789Z,22.74
2018-05-02T13:23:09.612Z,22.72
2018-05-02T13:25:44.517Z,22.72
2018-05-02T13:28:17.536Z,22.74
2018-05-02T13:30:51.971Z,22.87
2018-05-02T13:33:25.419Z,23.21
2018-05-02T13:35:57.977Z,23.46
2018-05-02T13:38:31.293Z,23.68
2018-05-02T13:41:08.294Z,23.85
2018-05-02T13:43:41.292Z,24.05
2018-05-02T13:46:14.333Z,24.29
2018-05-02T13:48:48.174Z,24.51
2018-05-02T13:51:23.814Z,24.74
2018-05-02T13:53:56.894Z,24.95
2018-05-02T13:56:32.354Z,25.12
2018-05-02T13:59:06.792Z,25.15
2018-05-02T14:01:40.135Z,25.10
2018-05-02T14:04:13.733Z,25.08
2018-05-02T14:06:47.079Z,24.95
2018-05-02T14:09:23.619Z,24.66
2018-05-02T14:12:20.052Z,24.45
2018-05-02T14:14:54.174Z,24.23
2018-05-02T14:17:27.454Z,24.03
2018-05-02T14:20:03.101Z,23.98
2018-05-02T14:22:37.438Z,23.89
2018-05-02T14:25:14.596Z,23.85
2018-05-02T14:27:47.876Z,23.75
2018-05-02T14:30:25.733Z,23.74
2018-05-02T14:33:02.113Z,23.89
2018-05-02T14:35:36.712Z,24.12
2018-05-02T14:38:11.712Z,24.33
2018-05-02T14:40:45.132Z,24.46
2018-05-02T14:43:22.259Z,24.48
2018-05-02T14:45:58.450Z,24.46
2018-05-02T14:48:35.157Z,24.26
2018-05-02T14:51:07.596Z,24.04
2018-05-02T14:53:39.350Z,23.88
2018-05-02T14:56:11.572Z,23.85
2018-05-02T14:58:45.370Z,23.88
2018-05-02T15:01:19.938Z,23.85
2018-05-02T15:03:52.791Z,23.80
2018-05-02T15:06:25.778Z,23.78
2018-05-02T15:08:59.956Z,23.79
2018-05-02T15:11:32.000Z,23.77
2018-05-02T15:14:04.023Z,23.80
2018-05-02T15:16:36.436Z,23.81
2018-05-02T15:19:10.413Z,23.81
2018-05-02T15:21:44.996Z,23.77
2018-05-02T15:24:21.293Z,23.68
2018-05-02T15:26:55.958Z,23.56
2018-05-02T15:29:30.172Z,23.52
2018-05-02T15:32:02.634Z,23.47
2018-05-02T15:34:38.094Z,23.42
2018-05-02T15:37:31.138Z,23.45
2018-05-02T15:40:07.365Z,23.53
2018-05-02T15:42:42.604Z,23.64
2018-05-02T15:45:14.865Z,23.69
2018-05-02T15:47:48.299Z,23.71
2018-05-02T15:50:22.852Z,23.68
2018-05-02T15:52:57.014Z,23.72
2018-05-02T15:55:31.439Z,23.63
2018-05-02T15:58:05.723Z,23.54
2018-05-02T16:00:38.053Z,23.52
2018-05-02T16:03:12.113Z,23.53
2018-05-02T16:05:45.336Z,23.55
2018-05-02T16:08:24.319Z,23.53
2018-05-02T16:10:56.555Z,23.49
2018-05-02T16:13:29.799Z,23.35
2018-05-02T16:16:03.975Z,23.27
2018-05-02T16:18:37.814Z,23.10
2018-05-02T16:21:12.676Z,22.95
2018-05-02T16:23:45.736Z,22.83
2018-05-02T16:26:23.230Z,22.71
2018-05-02T16:28:58.631Z,22.63
2018-05-02T16:31:32.203Z,22.56
2018-05-02T16:34:06.197Z,22.49
2018-05-02T16:36:38.914Z,22.41
2018-05-02T16:39:14.535Z,22.28
2018-05-02T16:41:49.070Z,22.16
2018-05-02T16:44:22.392Z,22.07
2018-05-02T16:46:58.691Z,21.96
2018-05-02T16:49:33.435Z,21.84
2018-05-02T16:52:07.072Z,21.72
2018-05-02T16:54:39.654Z,21.55
2018-05-02T16:57:15.194Z,21.43
2018-05-02T16:59:49.315Z,21.33
2018-05-02T17:02:24.758Z,21.22
2018-05-02T17:05:00.460Z,21.07
2018-05-02T17:07:32.835Z,20.98
2018-05-02T17:10:09.113Z,20.87
2018-05-02T17:12:42.132Z,20.78
2018-05-02T17:15:16.135Z,20.67
2018-05-02T17:17:48.841Z,20.58
2018-05-02T17:20:22.054Z,20.48
2018-05-02T17:22:55.511Z,20.39
2018-05-02T17:25:28.893Z,20.31
2018-05-02T17:28:02.056Z,20.24
2018-05-02T17:30:35.653Z,20.17
2018-05-02T17:33:10.631Z,20.10
2018-05-02T17:35:43.735Z,20.02
2018-05-02T17:38:16.597Z,19.92
2018-05-02T17:40:50.167Z,19.86
2018-05-02T17:43:23.097Z,19.80
2018-05-02T17:45:55.243Z,19.74
2018-05-02T17:48:28.960Z,19.69
2018-05-02T17:51:01.209Z,19.63
2018-05-02T17:53:34.852Z,19.57
2018-05-02T17:56:08.533Z,19.52
2018-05-02T17:58:46.262Z,19.50
2018-05-02T18:01:24.474Z,19.48
2018-05-02T18:03:57.255Z,19.43
2018-05-02T18:06:30.773Z,19.40
2018-05-02T18:09:05.499Z,19.37
2018-05-02T18:11:38.154Z,19.33
2018-05-02T18:14:12.338Z,19.32
2018-05-02T18:16:47.097Z,19.28
2018-05-02T18:19:20.215Z,19.22
2018-05-02T18:21:52.521Z,19.20
2018-05-02T18:24:28.774Z,19.16
2018-05-02T18:27:02.379Z,19.11
2018-05-02T18:29:35.476Z,19.08
2018-05-02T18:32:09.356Z,19.04
2018-05-02T18:34:42.793Z,19.00
2018-05-02T18:37:16.012Z,18.95
2018-05-02T18:39:48.610Z,18.90
2018-05-02T18:42:22.091Z,18.85
2018-05-02T18:44:54.153Z,18.81
2018-05-02T18:47:30.519Z,18.78
2018-05-02T18:50:03.000Z,18.75
2018-05-02T18:52:36.316Z,18.70
2018-05-02T18:55:10.154Z,18.69
2018-05-02T18:57:42.597Z,18.66
2018-05-02T19:00:17.798Z,18.63
2018-05-02T19:02:50.315Z,18.60
2018-05-02T19:05:24.694Z,18.57
2018-05-02T19:07:58.731Z,18.52
2018-05-02T19:10:31.256Z,18.48
2018-05-02T19:13:04.594Z,18.45
2018-05-02T19:15:38.717Z,18.43
2018-05-02T19:21:24.492Z,18.38
2018-05-02T19:23:57.847Z,18.35
2018-05-02T19:26:37.613Z,18.32
2018-05-02T19:29:09.010Z,18.24
2018-05-02T19:31:46.995Z,18.17
2018-05-02T19:34:20.077Z,18.06
2018-05-02T19:36:53.219Z,17.97
2018-05-02T19:39:27.130Z,17.89
2018-05-02T19:42:05.916Z,17.82
2018-05-02T19:44:39.035Z,17.77
2018-05-02T19:47:14.217Z,17.69
2018-05-02T19:49:47.337Z,17.63
2018-05-02T19:52:25.815Z,17.54
2018-05-02T19:54:59.173Z,17.46
2018-05-02T19:57:33.159Z,17.42
2018-05-02T20:00:05.763Z,17.39
2018-05-02T20:02:43.545Z,17.34
2018-05-02T20:05:15.907Z,17.32
2018-05-02T20:07:50.075Z,17.32
2018-05-02T20:10:27.497Z,17.33
2018-05-02T20:13:05.655Z,17.31
2018-05-02T20:15:39.318Z,17.28
2018-05-02T20:18:13.182Z,17.25
2018-05-02T20:20:47.661Z,17.23
2018-05-02T20:23:19.955Z,17.19
2018-05-02T20:25:55.737Z,17.13
2018-05-02T20:28:30.877Z,17.13
2018-05-02T20:31:06.592Z,17.10
2018-05-02T20:33:39.842Z,17.08
2018-05-02T20:36:13.360Z,17.06
2018-05-02T20:38:47.179Z,17.05
2018-05-02T20:41:19.736Z,17.04
2018-05-02T20:43:54.779Z,17.01
2018-05-02T20:46:32.193Z,16.99
2018-05-02T20:49:06.892Z,16.96
2018-05-02T20:51:41.174Z,16.96
2018-05-02T20:54:16.138Z,16.97
2018-05-02T20:56:53.740Z,16.97
2018-05-02T20:59:27.737Z,16.94
2018-05-02T21:02:01.199Z,16.94
2018-05-02T21:04:34.721Z,16.93
2018-05-02T21:07:06.999Z,16.89
2018-05-02T21:09:39.835Z,16.79
2018-05-02T21:12:12.696Z,16.66
2018-05-02T21:14:46.543Z,16.54
2018-05-02T21:17:23.054Z,16.39
2018-05-02T21:20:01.116Z,16.26
2018-05-02T21:22:35.613Z,16.10
2018-05-02T21:25:10.337Z,15.98
2018-05-02T21:27:43.235Z,15.86
2018-05-02T21:30:16.253Z,15.79
2018-05-02T21:32:48.914Z,15.69
2018-05-02T21:35:21.097Z,15.59
2018-05-02T21:37:53.336Z,15.54
2018-05-02T21:40:25.418Z,15.48
2018-05-02T21:42:58.554Z,15.39
2018-05-02T21:45:30.563Z,15.35
2018-05-02T21:48:02.755Z,15.30
2018-05-02T21:50:36.220Z,15.28
2018-05-02T21:53:08.833Z,15.20
2018-05-02T21:55:42.054Z,15.12
2018-05-02T21:58:18.249Z,15.05
2018-05-02T22:00:58.601Z,14.97
2018-05-02T22:03:31.751Z,14.93
2018-05-02T22:06:07.416Z,14.90
2018-05-02T22:08:42.692Z,14.86
2018-05-02T22:33:26.581Z,14.57
2018-05-02T22:36:00.285Z,14.53
2018-05-02T22:38:33.221Z,14.51
2018-05-02T22:41:05.580Z,14.45
2018-05-02T22:43:37.562Z,14.41
2018-05-02T22:46:11.224Z,14.38
2018-05-02T22:48:44.812Z,14.39
2018-05-02T22:51:17.162Z,14.37
2018-05-02T22:53:49.727Z,14.36
2018-05-02T22:56:22.082Z,14.35
2018-05-02T22:58:54.362Z,14.37
2018-05-02T23:01:27.680Z,14.37
2018-05-02T23:04:00.226Z,14.34
2018-05-02T23:06:32.621Z,14.33
2018-05-02T23:09:05.160Z,14.34
2018-05-02T23:11:38.083Z,14.34
2018-05-02T23:14:12.900Z,14.33
2018-05-02T23:16:45.418Z,14.31
2018-05-02T23:19:21.405Z,14.30
2018-05-02T23:21:54.565Z,14.29
2018-05-02T23:24:31.042Z,14.27
2018-05-02T23:27:06.282Z,14.22
2018-05-02T23:29:39.402Z,14.21
2018-05-02T23:32:12.478Z,14.19
2018-05-02T23:34:49.428Z,14.16
2018-05-02T23:37:24.591Z,14.13
2018-05-02T23:39:59.398Z,14.09
2018-05-02T23:42:32.184Z,14.09
2018-05-02T23:45:05.963Z,14.07
2018-05-02T23:47:40.199Z,14.04
2018-05-02T23:50:15.060Z,13.98
2018-05-02T23:52:50.025Z,13.94
2018-05-02T23:55:22.902Z,13.88
2018-05-02T23:57:56.999Z,13.82
